Terminal Aerodrome Forecast
Issued by NWS Jacksonville, FL

Home | Current Version | Previous Version | Text Only | Print | Product List | Glossary On
Versions: 1 2 3 4 5 6 7 8 9 10 11 12 13 14
000
FTUS42 KJAX 311125
TAFGNV
TAF
KGNV 311125Z 3112/0112 35004KT P6SM SCT250
     FM311600 07010G15KT P6SM FEW050 SCT150 BKN250
     FM010100 07002KT P6SM FEW020 SCT150 BKN250=

USA.gov is the U.S. government's official web portal to all federal, state and local government web resources and services.